Flight Information

DEPARTURE
PORT ANGELES, WA
Elevation:
291
Runways:
8/26 - 6347x150 - ASPH-G
13/31 - 3255x50 - ASPH-F
CTAF:
122.975
DESTINATION
FRIDAY HARBOR, WA
Elevation:
112
TPA:
1112 (est.)
Runways:
16/34 - 3402x75 - ASPH-G
CTAF:
128.250


30.7 NM38° True-21° Var17° HDG

Flight Plan:
(click to file on line)

1. Type
2. Aircraft Identification
3. Aircraft Type / Special Equipment
4. True Airspeed
kts
5. Departure Airport
(ICAO code)
6. Arriving Airport
(ICAO code)
7. Cruising Altitude
ft
8. Alternate Airport
(ICAO code)
9. Route of Flight
10. Remarks


00:00:00 Departure ATIS: Destination ATIS:

Clearance Limit:
Route:
Altitude: Expect in minutes
Frequency:
Transponder: (7500 Hijack / 7600 Lost Comms / 7700 Emergency)


KCLM 181253Z AUTO 00000KT 10SM CLR 19/14 A2994 RMK AO2 SLP136 T01890139
Time: 2022-08-18T12:53:00Z
1660828913
Winds: calm
Visibility: 10.0 sm
Clouds (AGL): CLR
Temperature: 18.9 C
Dew Point: 13.9 C
Pressure: 29.940945 in Hgbr

KFHR 181253Z AUTO 00000KT 10SM CLR 16/13 A2993 RMK AO2 SLP133 T01560128
Time: 2022-08-18T12:53:00Z
1660828913
Winds: calm
Visibility: 10.0 sm
Clouds (AGL): CLR
Temperature: 15.6 C
Dew Point: 12.8 C
Pressure: 29.929134 in Hgbr


Notes:

Data extracted from FAA Digital Chart Supplement. Effective: 0901Z Thursday, 27 JAN 2022 to 0900z Thursday, 24 MAR 2022
Current ATIS data is provided courtisy of PilotEdge.